Time;durP1;ratioP1;P1;durP2;ratioP2;P2;SDS_P1;SDS_P2;PMS_P1;PMS_P2;Temp;Humidity;BMP_temperature;BMP_pressure;BME280_temperature;BME280_humidity;BME280_pressure;Samples;Min_cycle;Max_cycle;Signal;HPM_P1;HPM_P2
2021/12/21 00:01:08;;;;;;;32.88;14.05;;;;;;;2.19;67.71;100890.66;5066441;28;20098;-77
2021/12/21 00:03:34;;;;;;;38.30;13.77;;;;;;;2.17;67.48;100887.25;5046438;28;20068;-77
2021/12/21 00:06:03;;;;;;;32.78;13.48;;;;;;;2.16;67.84;100893.38;5065745;28;20060;-77
2021/12/21 00:08:29;;;;;;;33.45;12.70;;;;;;;2.16;67.53;100893.38;5024638;28;20057;-77
2021/12/21 00:11:14;;;;;;;29.73;12.75;;;;;;;2.11;67.64;100890.06;5062483;28;20515;-76
2021/12/21 00:19:20;;;;;;;30.10;12.35;;;;;;;2.07;67.54;100891.97;5041905;28;20055;-77
2021/12/21 00:21:53;;;;;;;;;;;;;;;1.94;67.85;100890.69;5064558;28;20433;-77
2021/12/21 00:24:23;;;;;;;33.95;12.07;;;;;;;2.00;67.71;100890.47;5051162;28;20295;-77
2021/12/21 00:26:51;;;;;;;25.67;10.57;;;;;;;2.00;67.64;100887.00;5057502;28;20044;-77
2021/12/21 00:29:19;;;;;;;29.52;11.85;;;;;;;1.98;67.35;100873.94;5060928;28;20048;-77
2021/12/21 00:31:47;;;;;;;28.80;10.50;;;;;;;1.98;67.36;100875.72;5077795;28;20048;-77
2021/12/21 00:34:14;;;;;;;22.13;9.73;;;;;;;1.95;67.33;100872.28;5077131;28;20059;-77
2021/12/21 00:36:40;;;;;;;19.48;9.48;;;;;;;1.95;67.47;100868.81;5065001;28;20049;-77
2021/12/21 00:39:11;;;;;;;23.13;10.25;;;;;;;1.95;67.51;100872.28;5060246;28;20035;-77
2021/12/21 00:41:38;;;;;;;24.27;10.30;;;;;;;1.95;67.73;100863.59;5052489;28;20372;-77
2021/12/21 00:44:04;;;;;;;26.45;10.20;;;;;;;1.94;67.50;100865.34;5062192;28;20462;-77
2021/12/21 00:46:31;;;;;;;28.02;10.82;;;;;;;1.93;67.26;100855.81;5076901;28;20059;-77
2021/12/21 00:49:11;;;;;;;20.30;11.88;;;;;;;1.91;67.52;100857.63;5059868;28;20050;-77
2021/12/21 00:51:38;;;;;;;20.45;10.48;;;;;;;1.91;67.34;100859.38;5068908;28;20044;-77
2021/12/21 00:54:05;;;;;;;27.30;11.90;;;;;;;1.91;67.45;100856.78;5046376;28;20043;-77
2021/12/21 00:56:32;;;;;;;21.00;11.20;;;;;;;1.89;67.62;100855.97;5077178;28;20510;-76
2021/12/21 00:58:59;;;;;;;24.20;11.18;;;;;;;1.88;67.59;100862.97;5062867;28;20062;-77
2021/12/21 01:01:26;;;;;;;20.00;9.68;;;;;;;1.86;67.42;100859.53;5063421;28;20046;-77
2021/12/21 01:03:54;;;;;;;24.60;10.88;;;;;;;1.85;67.27;100854.34;5068076;28;20097;-77
2021/12/21 01:09:18;;;;;;;23.48;9.93;;;;;;;1.83;67.62;100857.03;5045315;28;20052;-77
2021/12/21 01:11:50;;;;;;;25.08;10.65;;;;;;;1.81;67.36;100842.31;5027370;28;20040;-77
2021/12/21 01:17:27;;;;;;;26.98;11.20;;;;;;;1.77;67.54;100848.53;4933870;28;20050;-77
2021/12/21 01:20:04;;;;;;;20.95;9.95;;;;;;;1.76;67.48;100846.84;5047841;28;20050;-77
2021/12/21 01:25:34;;;;;;;26.08;11.18;;;;;;;1.72;67.70;100853.94;5009935;28;20044;-77
2021/12/21 01:30:49;;;;;;;21.60;9.52;;;;;;;1.73;67.69;100842.53;5043335;28;20040;-77
2021/12/21 01:33:46;;;;;;;23.83;9.23;;;;;;;1.71;67.44;100849.63;5039857;28;20053;-77
2021/12/21 01:39:07;;;;;;;14.70;8.00;;;;;;;1.66;67.63;100844.53;5042844;28;20071;-78
2021/12/21 01:41:42;;;;;;;19.73;7.72;;;;;;;1.66;67.81;100843.69;5015397;28;20036;-77
2021/12/21 01:52:08;;;;;;;16.02;6.95;;;;;;;1.63;67.95;100846.41;5060874;28;20425;-78
2021/12/21 01:54:35;;;;;;;17.58;7.25;;;;;;;1.63;67.88;100842.03;5057982;28;20119;-77
2021/12/21 01:57:02;;;;;;;22.90;7.55;;;;;;;1.62;67.91;100837.69;5069296;28;20094;-77
2021/12/21 01:59:29;;;;;;;19.05;7.32;;;;;;;1.61;67.77;100840.38;5075073;28;20110;-77
2021/12/21 02:01:56;;;;;;;22.55;7.75;;;;;;;1.59;67.47;100832.56;5055356;28;20045;-77
2021/12/21 02:04:23;;;;;;;27.88;8.30;;;;;;;1.58;67.65;100837.84;5056710;28;20044;-77
2021/12/21 02:06:49;;;;;;;17.80;7.32;;;;;;;1.56;67.46;100829.22;5060512;28;20044;-77
2021/12/21 02:09:19;;;;;;;15.48;7.43;;;;;;;1.55;67.45;100830.09;5064644;28;20049;-77
2021/12/21 02:11:47;;;;;;;24.52;7.40;;;;;;;1.53;67.41;100832.81;5057381;28;20055;-77
2021/12/21 02:14:15;;;;;;;16.90;7.00;;;;;;;1.50;67.53;100827.66;5071254;28;20123;-77
2021/12/21 02:17:01;;;;;;;23.42;8.43;;;;;;;1.48;67.51;100834.72;5052400;28;20053;-77
2021/12/21 02:19:37;;;;;;;19.83;9.65;;;;;;;1.46;67.70;100826.91;5039123;28;20090;-77
2021/12/21 02:22:19;;;;;;;22.85;8.55;;;;;;;1.46;67.37;100826.91;5050841;28;20052;-77
2021/12/21 02:25:19;;;;;;;24.13;7.82;;;;;;;1.44;67.49;100820.03;5036354;28;20502;-77
2021/12/21 02:27:56;;;;;;;22.17;9.02;;;;;;;1.44;67.62;100825.25;5052768;28;20044;-77
2021/12/21 02:30:23;;;;;;;20.40;9.32;;;;;;;1.44;67.72;100823.50;5058128;28;20085;-77
2021/12/21 02:32:50;;;;;;;20.42;9.60;;;;;;;1.43;67.86;100831.41;5075127;28;20054;-77
2021/12/21 02:35:18;;;;;;;26.17;9.02;;;;;;;1.43;68.01;100826.19;5073889;28;20045;-77
2021/12/21 02:37:46;;;;;;;20.00;8.45;;;;;;;1.42;67.59;100829.69;5074331;28;20051;-77
2021/12/21 02:40:13;;;;;;;20.98;8.85;;;;;;;1.41;67.81;100823.59;5056675;28;20400;-78
2021/12/21 02:42:40;;;;;;;26.75;9.50;;;;;;;1.40;67.43;100826.25;5073170;28;20052;-77
2021/12/21 02:45:07;;;;;;;33.80;9.70;;;;;;;1.38;67.54;100817.63;5054316;28;20076;-77
2021/12/21 02:47:33;;;;;;;27.05;9.50;;;;;;;1.38;67.87;100826.34;5047883;28;20048;-79
2021/12/21 02:50:00;;;;;;;22.65;9.15;;;;;;;1.38;67.61;100815.03;5034199;28;20462;-77
2021/12/21 02:52:27;;;;;;;25.58;9.20;;;;;;;1.36;67.70;100820.28;5069607;28;20052;-77
2021/12/21 02:54:55;;;;;;;24.00;9.48;;;;;;;1.36;67.59;100822.91;5063617;28;20044;-77
2021/12/21 02:57:21;;;;;;;21.90;8.23;;;;;;;1.33;67.70;100823.03;5041456;28;20189;-77
2021/12/21 02:59:48;;;;;;;20.75;9.70;;;;;;;1.31;67.50;100824.81;5071369;28;20044;-77
2021/12/21 03:02:15;;;;;;;23.10;8.85;;;;;;;1.30;67.69;100820.50;5073358;28;20518;-77
2021/12/21 03:04:43;;;;;;;21.15;9.60;;;;;;;1.30;67.55;100825.75;5071131;28;20044;-77
2021/12/21 03:09:56;;;;;;;22.27;9.63;;;;;;;1.27;68.09;100826.72;5053070;28;20484;-77
2021/12/21 03:14:51;;;;;;;18.50;8.18;;;;;;;1.26;68.06;100822.38;5063046;28;20129;-77
2021/12/21 03:17:19;;;;;;;15.80;6.40;;;;;;;1.26;68.04;100824.97;5045004;28;20052;-77
2021/12/21 03:19:46;;;;;;;18.63;7.15;;;;;;;1.25;67.93;100820.66;5072301;28;20040;-77
2021/12/21 03:22:14;;;;;;;20.88;8.15;;;;;;;1.24;67.86;100816.31;5062420;28;20074;-77
2021/12/21 03:24:43;;;;;;;22.70;9.65;;;;;;;1.23;67.97;100816.41;5046114;28;20052;-77
2021/12/21 03:27:10;;;;;;;20.73;7.20;;;;;;;1.22;67.93;100823.41;5024677;28;20105;-78
2021/12/21 03:29:37;;;;;;;15.70;6.35;;;;;;;1.20;67.93;100812.13;5073922;28;20101;-77
2021/12/21 03:32:04;;;;;;;15.27;5.82;;;;;;;1.21;68.11;100823.44;5039356;28;20044;-75
2021/12/21 03:34:31;;;;;;;15.05;5.22;;;;;;;1.22;68.51;100822.50;5041219;28;20049;-78
2021/12/21 03:36:57;;;;;;;13.02;4.65;;;;;;;1.21;68.63;100819.06;5054438;28;20946;-77
2021/12/21 03:39:24;;;;;;;10.85;5.00;;;;;;;1.21;68.40;100824.28;5045927;28;20040;-77
2021/12/21 03:41:56;;;;;;;12.68;4.20;;;;;;;1.21;68.53;100821.66;5070037;28;20051;-78
2021/12/21 03:44:24;;;;;;;14.13;4.72;;;;;;;1.21;68.61;100821.66;5068364;28;20107;-77
2021/12/21 03:46:53;;;;;;;10.25;4.50;;;;;;;1.21;68.60;100829.50;5045495;28;20087;-79
2021/12/21 03:52:01;;;;;;;11.65;4.97;;;;;;;1.20;68.43;100826.97;5050786;28;20514;-77
2021/12/21 03:54:27;;;;;;;11.35;4.55;;;;;;;1.17;68.11;100822.69;5073090;28;20048;-77
2021/12/21 03:56:54;;;;;;;15.00;4.90;;;;;;;1.17;67.85;100822.69;5073099;28;20051;-77
2021/12/21 03:59:21;;;;;;;11.77;4.75;;;;;;;1.14;68.22;100814.94;5054609;28;20499;-77
2021/12/21 04:01:48;;;;;;;10.48;5.07;;;;;;;1.14;67.97;100814.94;5062014;28;20052;-77
2021/12/21 04:04:18;;;;;;;12.15;5.72;;;;;;;1.11;67.86;100811.56;5072099;28;20052;-77
2021/12/21 04:06:46;;;;;;;13.65;4.93;;;;;;;1.11;68.17;100812.41;5062180;28;20040;-77
2021/12/21 04:09:13;;;;;;;12.35;4.80;;;;;;;1.11;68.21;100808.97;5077426;28;20109;-77
2021/12/21 04:11:40;;;;;;;15.43;5.38;;;;;;;1.08;68.37;100807.31;5073323;28;20045;-77
2021/12/21 04:14:07;;;;;;;13.70;4.80;;;;;;;1.08;68.20;100809.91;5075684;28;20079;-77
2021/12/21 04:16:33;;;;;;;13.45;4.63;;;;;;;1.06;67.96;100804.72;5058759;28;20053;-77
2021/12/21 04:19:00;;;;;;;16.40;5.20;;;;;;;1.05;67.74;100802.19;5073322;28;20435;-77
2021/12/21 04:21:30;;;;;;;14.85;4.72;;;;;;;1.03;67.92;100797.00;5057061;28;20049;-77
2021/12/21 04:23:56;;;;;;;20.45;5.82;;;;;;;1.03;67.97;100798.75;5068134;28;20388;-77
2021/12/21 04:26:23;;;;;;;14.77;5.35;;;;;;;1.00;68.20;100799.72;5063081;28;20052;-77
2021/12/21 04:28:50;;;;;;;15.73;5.50;;;;;;;1.00;67.98;100799.72;5068350;28;20048;-77
2021/12/21 04:31:16;;;;;;;13.50;6.13;;;;;;;0.99;67.92;100795.41;5073639;28;20055;-78
2021/12/21 04:33:43;;;;;;;15.15;5.68;;;;;;;0.99;68.00;100795.41;5049002;28;20072;-77
2021/12/21 04:36:12;;;;;;;14.40;5.60;;;;;;;0.98;68.21;100798.06;5051560;28;20045;-79
2021/12/21 04:38:43;;;;;;;15.25;5.22;;;;;;;0.98;68.23;100801.50;5072771;28;20053;-79
2021/12/21 04:41:15;;;;;;;14.10;5.05;;;;;;;0.97;68.12;100799.81;5061011;28;20451;-79
2021/12/21 04:43:43;;;;;;;8.27;5.10;;;;;;;0.97;68.53;100799.81;5061885;28;20531;-80
2021/12/21 04:46:10;;;;;;;18.27;6.78;;;;;;;0.98;68.24;100805.91;5070980;28;20052;-80
2021/12/21 04:48:37;;;;;;;14.57;6.68;;;;;;;0.99;68.30;100810.22;5063932;28;20045;-79
2021/12/21 04:51:07;;;;;;;17.95;5.65;;;;;;;0.96;68.43;100803.31;5069949;28;20098;-79
2021/12/21 04:53:33;;;;;;;11.10;5.47;;;;;;;0.97;68.09;100805.06;5059115;28;20094;-80
2021/12/21 04:56:02;;;;;;;16.45;6.20;;;;;;;0.95;68.19;100798.16;5073044;28;20044;-80
2021/12/21 04:58:30;;;;;;;12.85;5.68;;;;;;;0.95;68.32;100801.63;5074432;28;20053;-79
2021/12/21 05:00:56;;;;;;;15.05;5.90;;;;;;;0.93;67.78;100803.44;5077651;28;20044;-79
2021/12/21 05:03:24;;;;;;;14.77;6.13;;;;;;;0.91;68.01;100807.00;5069955;28;20036;-80
2021/12/21 05:05:52;;;;;;;19.83;8.07;;;;;;;0.88;68.09;100802.72;5078944;28;20059;-80
2021/12/21 05:08:33;;;;;;;10.23;5.57;;;;;;;0.89;68.08;100811.41;5069145;28;20471;-80
2021/12/21 05:11:03;;;;;;;12.63;5.40;;;;;;;0.87;68.59;100811.50;5070222;28;20044;-77
2021/12/21 05:13:32;;;;;;;11.48;5.43;;;;;;;0.86;68.52;100800.16;5059700;28;20036;-77
2021/12/21 05:15:59;;;;;;;15.60;5.70;;;;;;;0.87;68.53;100798.41;5075471;28;20049;-77
2021/12/21 05:18:27;;;;;;;14.10;5.13;;;;;;;0.86;68.35;100797.53;5043229;28;20522;-77
2021/12/21 05:20:55;;;;;;;10.95;5.22;;;;;;;0.86;68.64;100788.84;5063377;28;20045;-78
2021/12/21 05:23:22;;;;;;;17.42;6.53;;;;;;;0.84;68.68;100799.38;5067886;28;20052;-77
2021/12/21 05:25:50;;;;;;;16.05;5.85;;;;;;;0.83;68.67;100794.19;5063140;28;20044;-77
2021/12/21 05:28:18;;;;;;;9.65;5.03;;;;;;;0.82;68.28;100795.94;5051030;28;20554;-77
2021/12/21 05:30:46;;;;;;;21.77;7.90;;;;;;;0.84;68.10;100794.13;5070947;28;21086;-78
2021/12/21 05:33:15;;;;;;;19.52;6.10;;;;;;;0.79;67.93;100803.91;5076358;28;20431;-77
2021/12/21 05:35:42;;;;;;;13.00;5.47;;;;;;;0.80;67.41;100802.97;5079768;28;20068;-77
2021/12/21 05:38:10;;;;;;;14.50;5.65;;;;;;;0.74;67.71;100803.19;5034574;28;20039;-77
2021/12/21 05:40:43;;;;;;;12.70;5.38;;;;;;;0.74;67.71;100804.94;5060971;28;20044;-77
2021/12/21 05:43:11;;;;;;;11.68;5.20;;;;;;;0.68;67.51;100810.34;5059906;28;20094;-77
2021/12/21 05:45:38;;;;;;;13.45;5.18;;;;;;;0.65;67.68;100803.47;5057340;28;20044;-76
2021/12/21 05:48:06;;;;;;;14.98;5.88;;;;;;;0.62;67.65;100807.03;5031696;28;20101;-77
2021/12/21 05:50:35;;;;;;;14.43;5.80;;;;;;;0.63;67.66;100802.66;5070406;28;20048;-77
2021/12/21 05:53:03;;;;;;;14.45;5.70;;;;;;;0.62;67.84;100806.19;5049071;28;20051;-77
2021/12/21 05:55:29;;;;;;;11.98;5.38;;;;;;;0.60;68.04;100813.22;5047837;28;20425;-76
2021/12/21 05:57:57;;;;;;;11.70;6.13;;;;;;;0.61;67.54;100810.56;5067532;28;20041;-78
2021/12/21 06:00:27;;;;;;;14.15;5.70;;;;;;;0.56;67.98;100806.38;5062501;28;20040;-78
2021/12/21 06:02:54;;;;;;;20.42;5.75;;;;;;;0.57;67.92;100808.09;5030499;28;20155;-79
2021/12/21 06:05:21;;;;;;;17.63;6.18;;;;;;;0.55;68.05;100804.66;5046815;28;20400;-78
2021/12/21 06:07:51;;;;;;;16.67;5.78;;;;;;;0.56;68.19;100803.75;5051503;28;20094;-77
2021/12/21 06:10:25;;;;;;;20.20;7.10;;;;;;;0.59;68.31;100803.69;5052559;28;20049;-78
2021/12/21 06:13:14;;;;;;;18.45;6.95;;;;;;;0.57;68.36;100798.50;5079195;28;20048;-78
2021/12/21 06:26:17;;;;;;;16.38;7.20;;;;;;;0.53;68.36;100788.19;5061450;28;20044;-78
2021/12/21 06:28:45;;;;;;;25.17;7.32;;;;;;;0.54;68.10;100790.75;5065047;28;20044;-78
2021/12/21 06:31:14;;;;;;;21.02;6.80;;;;;;;0.48;67.64;100792.69;5066193;28;21000;-77
2021/12/21 06:33:41;;;;;;;20.38;7.10;;;;;;;0.48;67.80;100795.31;5076313;28;20036;-78
2021/12/21 06:36:09;;;;;;;16.92;6.57;;;;;;;0.47;67.81;100789.22;5072769;28;20041;-79
2021/12/21 06:38:36;;;;;;;13.57;6.97;;;;;;;0.42;68.05;100789.38;5044338;28;20114;-78
2021/12/21 06:41:04;;;;;;;13.68;6.90;;;;;;;0.40;68.16;100785.09;5055817;28;20058;-78
2021/12/21 06:43:32;;;;;;;18.45;5.80;;;;;;;0.41;68.24;100790.28;5050013;28;20051;-77
2021/12/21 06:51:26;;;;;;;17.65;8.35;;;;;;;0.43;68.35;100798.06;4998261;28;20351;-80
2021/12/21 06:53:55;;;;;;;17.23;7.65;;;;;;;0.42;68.46;100797.22;5025538;28;20048;-76
2021/12/21 06:56:25;;;;;;;19.10;6.93;;;;;;;0.42;68.70;100796.34;5061877;28;20475;-78
2021/12/21 06:58:54;;;;;;;20.63;7.80;;;;;;;0.48;68.50;100809.22;5066094;28;20040;-78
2021/12/21 07:01:22;;;;;;;20.02;7.78;;;;;;;0.44;68.62;100802.41;5059031;28;20129;-77
2021/12/21 07:03:49;;;;;;;18.83;8.23;;;;;;;0.43;69.00;100812.00;5080799;28;20044;-78
2021/12/21 07:06:18;;;;;;;21.20;8.20;;;;;;;0.44;68.75;100815.47;5037862;28;20115;-77
2021/12/21 07:08:52;;;;;;;19.92;8.10;;;;;;;0.41;69.01;100813.81;5077203;28;20492;-76
2021/12/21 07:19:35;;;;;;;22.13;7.75;;;;;;;0.42;69.12;100806.81;5052977;28;20071;-79
2021/12/21 07:22:03;;;;;;;18.63;9.15;;;;;;;0.41;69.02;100815.56;5056654;28;20045;-79
2021/12/21 07:24:30;;;;;;;27.83;9.93;;;;;;;0.39;68.75;100815.59;5037163;28;20083;-77
2021/12/21 07:27:02;;;;;;;21.27;8.98;;;;;;;0.37;68.60;100813.94;5044711;28;20503;-78
2021/12/21 07:29:28;;;;;;;13.68;7.60;;;;;;;0.36;68.87;100820.94;5054280;28;20045;-77
2021/12/21 07:31:55;;;;;;;14.25;8.48;;;;;;;0.36;69.13;100822.69;5054043;28;20365;-77
2021/12/21 07:34:22;;;;;;;20.70;7.72;;;;;;;0.36;68.86;100828.75;5031847;28;20086;-77
2021/12/21 07:36:49;;;;;;;21.27;9.05;;;;;;;0.36;69.02;100827.91;5089086;28;20036;-77
2021/12/21 07:39:17;;;;;;;15.43;7.75;;;;;;;0.36;68.89;100828.75;5080660;28;20424;-77
2021/12/21 07:41:57;;;;;;;14.57;8.15;;;;;;;0.34;68.77;100824.47;5038580;28;20135;-77
2021/12/21 07:44:24;;;;;;;16.63;9.25;;;;;;;0.33;69.03;100835.81;5074884;28;20041;-78
2021/12/21 07:46:51;;;;;;;19.20;7.57;;;;;;;0.33;68.97;100841.03;5073483;28;20071;-77
2021/12/21 07:49:18;;;;;;;19.55;7.78;;;;;;;0.32;69.15;100841.97;5041701;28;20411;-76
2021/12/21 07:51:45;;;;;;;19.65;9.80;;;;;;;0.31;69.01;100842.88;5079499;28;20138;-78
2021/12/21 07:54:11;;;;;;;24.92;10.45;;;;;;;0.29;68.71;100829.84;5077157;28;20460;-78
2021/12/21 07:56:38;;;;;;;23.67;9.98;;;;;;;0.30;68.92;100833.31;5060247;28;20049;-78
2021/12/21 07:59:05;;;;;;;25.27;12.85;;;;;;;0.29;68.78;100837.69;5050635;28;20048;-77
2021/12/21 08:01:32;;;;;;;28.25;13.82;;;;;;;0.29;68.53;100837.69;5064312;28;20047;-76
2021/12/21 08:04:00;;;;;;;28.95;12.57;;;;;;;0.27;68.81;100839.47;5077643;28;20041;-77
2021/12/21 08:06:31;;;;;;;25.33;11.98;;;;;;;0.27;68.54;100839.47;5060176;28;20048;-77
2021/12/21 08:08:58;;;;;;;29.42;13.50;;;;;;;0.22;68.37;100844.84;5074140;28;20067;-77
2021/12/21 08:14:16;;;;;;;20.17;9.60;;;;;;;0.24;69.07;100833.50;4955002;28;20052;-78
2021/12/21 08:16:45;;;;;;;29.48;11.15;;;;;;;0.25;68.78;100835.19;5066280;28;20367;-77
2021/12/21 08:19:12;;;;;;;20.58;9.85;;;;;;;0.24;68.85;100833.50;5055748;28;20049;-78
2021/12/21 08:21:39;;;;;;;20.40;9.40;;;;;;;0.24;68.82;100836.13;5075374;28;20054;-78
2021/12/21 08:24:05;;;;;;;25.35;10.52;;;;;;;0.24;68.82;100831.75;5076408;28;20106;-78
2021/12/21 08:26:32;;;;;;;27.17;11.02;;;;;;;0.23;68.89;100835.25;5023180;28;20514;-77
2021/12/21 08:28:59;;;;;;;25.40;9.93;;;;;;;0.25;69.10;100832.59;5060459;28;20499;-77
2021/12/21 08:31:27;;;;;;;21.90;10.48;;;;;;;0.25;68.99;100833.44;5071408;28;20052;-81
2021/12/21 08:33:53;;;;;;;25.77;11.15;;;;;;;0.24;68.96;100842.19;5070529;28;20509;-76
2021/12/21 08:36:24;;;;;;;27.92;11.15;;;;;;;0.26;68.93;100839.53;5057958;28;20044;-78
2021/12/21 08:38:51;;;;;;;25.75;10.80;;;;;;;0.27;69.25;100843.84;5074703;28;20040;-78
2021/12/21 08:41:20;;;;;;;29.27;11.30;;;;;;;0.26;69.35;100836.94;5077469;28;20052;-79
2021/12/21 08:43:48;;;;;;;25.25;11.25;;;;;;;0.26;69.24;100843.00;5059470;28;20041;-79
2021/12/21 08:46:14;;;;;;;24.17;11.10;;;;;;;0.27;69.60;100838.63;5059407;28;20043;-77
2021/12/21 08:48:41;;;;;;;27.67;12.05;;;;;;;0.28;69.50;100848.16;5052532;28;20063;-78
2021/12/21 08:51:08;;;;;;;29.38;13.13;;;;;;;0.27;69.46;100846.47;5058838;28;20468;-78
2021/12/21 08:53:42;;;;;;;29.88;11.75;;;;;;;0.29;69.43;100849.88;5046351;28;20041;-78
2021/12/21 08:56:11;;;;;;;29.13;11.93;;;;;;;0.27;69.69;100847.31;5075716;28;20040;-78
2021/12/21 08:58:38;;;;;;;27.55;12.65;;;;;;;0.29;69.79;100844.66;5065338;28;20479;-77
2021/12/21 09:01:04;;;;;;;33.75;11.93;;;;;;;0.31;69.59;100851.56;5061420;28;20045;-77
2021/12/21 09:03:31;;;;;;;32.88;12.25;;;;;;;0.31;69.88;100850.72;5075036;28;20052;-75
2021/12/21 09:05:58;;;;;;;26.42;11.98;;;;;;;0.32;69.98;100845.41;5044369;28;20553;-77
2021/12/21 09:08:25;;;;;;;37.55;12.07;;;;;;;0.34;69.83;100840.16;5046485;28;20044;-77
2021/12/21 09:10:52;;;;;;;26.30;12.57;;;;;;;0.34;69.94;100848.00;5058317;28;20098;-78
2021/12/21 09:13:19;;;;;;;31.35;11.65;;;;;;;0.36;70.19;100851.44;5075694;28;20052;-77
2021/12/21 09:15:45;;;;;;;24.63;11.23;;;;;;;0.36;70.13;100847.06;5059718;28;20052;-77
2021/12/21 09:18:12;;;;;;;26.77;11.35;;;;;;;0.37;70.05;100842.69;5037403;28;20060;-77
2021/12/21 09:20:39;;;;;;;29.50;13.15;;;;;;;0.38;70.06;100852.22;5059140;28;20047;-76
2021/12/21 09:23:06;;;;;;;26.08;11.45;;;;;;;0.42;70.14;100848.63;5065495;28;20052;-77
2021/12/21 09:25:32;;;;;;;28.42;10.75;;;;;;;0.46;69.99;100849.38;5062592;28;20048;-77
2021/12/21 09:27:59;;;;;;;24.23;10.18;;;;;;;0.41;70.32;100850.38;5059176;28;20487;-77
2021/12/21 09:30:28;;;;;;;29.10;12.52;;;;;;;0.42;70.41;100844.25;5073062;28;20102;-79
2021/12/21 09:32:54;;;;;;;21.55;10.18;;;;;;;0.44;70.52;100841.59;5062711;28;20048;-77
2021/12/21 09:35:22;;;;;;;27.90;11.35;;;;;;;0.48;70.42;100842.34;5080010;28;20074;-77
2021/12/21 09:37:49;;;;;;;20.88;10.45;;;;;;;0.53;70.40;100843.91;5059042;28;20056;-77
2021/12/21 09:40:21;;;;;;;23.38;10.77;;;;;;;0.50;70.54;100840.53;5061231;28;20057;-79
2021/12/21 09:42:49;;;;;;;22.73;9.23;;;;;;;0.52;70.41;100839.59;5042605;28;20037;-77
2021/12/21 09:45:17;;;;;;;24.05;9.80;;;;;;;0.52;70.53;100838.75;5067989;28;22987;-76
2021/12/21 09:47:49;;;;;;;21.98;10.60;;;;;;;0.49;70.40;100839.69;5061801;28;20049;-77
2021/12/21 09:50:21;;;;;;;16.58;8.90;;;;;;;0.51;70.71;100837.91;5050177;28;20049;-76
2021/12/21 09:52:48;;;;;;;21.52;9.40;;;;;;;0.53;70.69;100830.00;5042376;28;20103;-77
2021/12/21 09:55:15;;;;;;;19.90;8.63;;;;;;;0.63;70.60;100841.88;5080527;28;20051;-76
2021/12/21 09:57:43;;;;;;;25.15;9.80;;;;;;;0.60;70.74;100845.44;5084019;28;20052;-76
2021/12/21 10:00:17;;;;;;;18.63;8.55;;;;;;;0.60;70.48;100847.19;5044767;28;20122;-78
2021/12/21 10:02:45;;;;;;;18.50;9.18;;;;;;;0.59;70.71;100843.72;5067856;28;20040;-76
2021/12/21 10:05:17;;;;;;;21.63;9.35;;;;;;;0.63;70.70;100849.72;5084432;28;20048;-80
2021/12/21 10:07:54;;;;;;;18.77;8.55;;;;;;;0.59;70.74;100837.66;5069560;28;20101;-77
2021/12/21 10:10:21;;;;;;;21.75;9.43;;;;;;;0.65;70.80;100835.69;5033690;28;20044;-78
2021/12/21 10:12:48;;;;;;;24.92;9.15;;;;;;;0.60;70.86;100840.19;5032830;28;20511;-84
2021/12/21 10:15:17;;;;;;;24.35;9.15;;;;;;;0.62;70.77;100835.78;5063983;28;20099;-76
2021/12/21 10:17:58;;;;;;;17.98;8.95;;;;;;;0.64;70.88;100835.75;5076441;28;20560;-75
2021/12/21 10:20:51;;;;;;;16.60;8.43;;;;;;;0.66;71.11;100828.69;5060868;28;20040;-77
2021/12/21 10:23:32;;;;;;;15.30;8.87;;;;;;;0.63;71.07;100823.56;5044226;28;20376;-77
2021/12/21 10:26:02;;;;;;;20.25;9.68;;;;;;;0.71;71.26;100818.94;5057296;28;20052;-78
2021/12/21 10:28:35;;;;;;;18.52;8.77;;;;;;;0.73;70.86;100819.75;5058199;28;20040;-78
2021/12/21 10:31:06;;;;;;;30.45;9.68;;;;;;;0.76;70.71;100817.03;5069277;28;20880;-77
2021/12/21 10:33:35;;;;;;;22.55;9.20;;;;;;;0.82;70.93;100813.41;5047042;28;22470;-78
2021/12/21 10:36:05;;;;;;;20.45;8.45;;;;;;;0.77;71.00;100807.47;5035299;28;20053;-75
2021/12/21 10:39:31;;;;;;;21.70;8.32;;;;;;;0.72;71.23;100799.75;5042355;28;20048;-80
2021/12/21 10:42:00;;;;;;;20.38;7.93;;;;;;;0.80;71.29;100800.38;5043740;28;20411;-79
2021/12/21 10:44:27;;;;;;;18.73;8.57;;;;;;;0.89;71.15;100796.63;5074013;28;20086;-77
2021/12/21 10:46:56;;;;;;;18.15;7.60;;;;;;;0.85;71.10;100788.00;5055567;28;20044;-76
2021/12/21 10:49:33;;;;;;;19.20;7.95;;;;;;;0.90;71.12;100794.84;5051622;28;20037;-79
2021/12/21 10:52:05;;;;;;;20.50;8.70;;;;;;;0.90;70.96;100798.31;5053297;28;20804;-78
2021/12/21 10:54:40;;;;;;;17.15;8.38;;;;;;;0.92;70.55;100783.44;5042906;28;20041;-78
2021/12/21 10:57:20;;;;;;;14.57;6.80;;;;;;;0.88;71.19;100779.19;5028225;28;20048;-77
2021/12/21 10:59:58;;;;;;;20.98;7.93;;;;;;;0.85;71.06;100777.53;5051105;28;20052;-79
2021/12/21 11:02:30;;;;;;;18.67;7.60;;;;;;;0.82;71.57;100777.66;5076436;28;20051;-77
2021/12/21 11:05:06;;;;;;;24.00;7.78;;;;;;;0.78;71.71;100780.41;5070878;28;20067;-78
2021/12/21 11:07:45;;;;;;;15.00;7.43;;;;;;;0.89;71.63;100783.53;5056704;28;20072;-78
2021/12/21 11:10:28;;;;;;;18.35;7.97;;;;;;;0.88;71.54;100775.72;5040405;28;20404;-79
2021/12/21 11:13:12;;;;;;;15.02;6.90;;;;;;;0.98;71.62;100775.38;5028332;28;20133;-77
2021/12/21 11:15:42;;;;;;;22.10;7.05;;;;;;;0.98;71.07;100764.91;5047224;28;20053;-80
2021/12/21 11:18:16;;;;;;;12.38;6.82;;;;;;;0.93;71.52;100771.19;5031715;28;20135;-78
2021/12/21 11:20:45;;;;;;;14.05;7.20;;;;;;;1.01;71.44;100772.63;5040398;28;20049;-78
2021/12/21 11:23:13;;;;;;;19.85;7.03;;;;;;;0.99;71.75;100766.63;5063957;28;20045;-78
2021/12/21 11:25:42;;;;;;;14.23;7.00;;;;;;;0.99;72.04;100763.13;5061215;28;20047;-78
2021/12/21 11:28:13;;;;;;;13.77;6.47;;;;;;;0.98;71.65;100759.66;5060724;28;20040;-79
2021/12/21 11:30:40;;;;;;;12.35;5.85;;;;;;;1.11;71.17;100754.03;5043671;28;20052;-79
2021/12/21 11:33:09;;;;;;;15.40;6.05;;;;;;;1.08;70.83;100744.53;5062527;28;20057;-78
2021/12/21 11:39:20;;;;;;;13.43;7.78;;;;;;;1.13;71.33;100742.59;5006227;28;20068;-77
2021/12/21 11:41:48;;;;;;;11.77;6.05;;;;;;;1.12;71.38;100747.88;5061881;28;20056;-82
2021/12/21 11:44:35;;;;;;;14.68;6.28;;;;;;;1.19;70.81;100738.91;5058274;28;20056;-77
2021/12/21 11:47:02;;;;;;;14.27;6.47;;;;;;;1.21;70.82;100744.94;5039633;28;20054;-77
2021/12/21 11:49:43;;;;;;;15.32;6.63;;;;;;;1.22;71.14;100738.78;5030201;28;20055;-77
2021/12/21 11:52:22;;;;;;;20.33;6.40;;;;;;;1.17;70.74;100738.09;5024142;28;20496;-77
2021/12/21 11:54:53;;;;;;;13.52;7.30;;;;;;;1.16;71.27;100734.63;5036832;28;20053;-77
2021/12/21 11:57:34;;;;;;;16.85;6.25;;;;;;;1.25;70.72;100736.09;5043949;28;20499;-77
2021/12/21 12:00:26;;;;;;;11.82;5.93;;;;;;;1.36;70.31;100730.47;5061441;28;20413;-77
2021/12/21 12:02:54;;;;;;;12.10;5.63;;;;;;;1.30;70.31;100736.78;5026128;28;20058;-77
2021/12/21 12:05:30;;;;;;;13.27;5.88;;;;;;;1.23;70.78;100724.81;5072821;28;20056;-80
2021/12/21 12:08:05;;;;;;;22.23;7.10;;;;;;;1.24;70.73;100732.59;5070911;28;20059;-79
2021/12/21 12:10:33;;;;;;;14.70;5.97;;;;;;;1.43;70.72;100731.97;5070665;28;20571;-79
2021/12/21 12:13:16;;;;;;;11.88;6.13;;;;;;;1.36;70.70;100727.84;5058933;28;20094;-76
2021/12/21 12:15:52;;;;;;;15.32;6.10;;;;;;;1.36;70.24;100733.09;5044478;28;20044;-78
2021/12/21 12:18:41;;;;;;;15.27;6.47;;;;;;;1.43;69.68;100727.56;5046411;28;20054;-77
2021/12/21 12:21:23;;;;;;;13.70;6.45;;;;;;;1.37;69.90;100725.16;5028812;28;20045;-78
2021/12/21 12:24:02;;;;;;;14.00;5.70;;;;;;;1.28;70.49;100723.75;5024755;28;20044;-77
2021/12/21 12:26:38;;;;;;;15.90;6.55;;;;;;;1.25;70.63;100717.78;5043984;28;20041;-77
2021/12/21 12:29:18;;;;;;;14.00;6.40;;;;;;;1.27;70.78;100727.28;5060564;28;20056;-78
2021/12/21 12:31:57;;;;;;;15.32;6.30;;;;;;;1.30;70.33;100724.56;5055756;28;20048;-79
2021/12/21 12:34:27;;;;;;;10.63;5.70;;;;;;;1.33;70.14;100717.50;5075171;28;20076;-78
2021/12/21 12:36:55;;;;;;;11.23;5.90;;;;;;;1.29;70.48;100707.13;5059679;28;20041;-79
2021/12/21 12:39:35;;;;;;;10.57;5.65;;;;;;;1.39;69.39;100712.88;5073702;28;20045;-77
2021/12/21 12:42:14;;;;;;;10.25;5.78;;;;;;;1.32;70.26;100714.00;5060614;28;20410;-77
2021/12/21 12:44:42;;;;;;;11.77;5.57;;;;;;;1.27;70.11;100711.59;5057358;28;20041;-77